sensor_id;sensor_type;location;lat;lon;timestamp;pressure;altitude;pressure_sealevel;temperature;humidity
41706;BME280;27385;51.096;17.190;2022-08-25T00:00:36;100619.12;;;19.29;99.48
41706;BME280;27385;51.096;17.190;2022-08-25T00:03:13;100621.03;;;19.28;99.46
41706;BME280;27385;51.096;17.190;2022-08-25T00:05:45;100619.45;;;19.27;99.37
41706;BME280;27385;51.096;17.190;2022-08-25T00:08:17;100616.96;;;19.25;99.27
41706;BME280;27385;51.096;17.190;2022-08-25T00:10:49;100615.34;;;19.22;99.37
41706;BME280;27385;51.096;17.190;2022-08-25T00:13:20;100614.65;;;19.20;99.45
41706;BME280;27385;51.096;17.190;2022-08-25T00:15:52;100615.85;;;19.18;99.17
41706;BME280;27385;51.096;17.190;2022-08-25T00:18:23;100616.95;;;19.15;99.26
41706;BME280;27385;51.096;17.190;2022-08-25T00:20:55;100612.80;;;19.13;99.10
41706;BME280;27385;51.096;17.190;2022-08-25T00:23:26;100612.08;;;19.10;99.41
41706;BME280;27385;51.096;17.190;2022-08-25T00:25:57;100610.23;;;19.09;99.44
41706;BME280;27385;51.096;17.190;2022-08-25T00:28:29;100611.09;;;19.08;99.30
41706;BME280;27385;51.096;17.190;2022-08-25T00:31:00;100617.27;;;19.09;99.08
41706;BME280;27385;51.096;17.190;2022-08-25T00:33:32;100615.12;;;19.08;98.92
41706;BME280;27385;51.096;17.190;2022-08-25T00:36:04;100618.02;;;19.07;98.89
41706;BME280;27385;51.096;17.190;2022-08-25T00:38:36;100615.73;;;19.04;98.90
41706;BME280;27385;51.096;17.190;2022-08-25T00:41:10;100622.98;;;19.03;98.92
41706;BME280;27385;51.096;17.190;2022-08-25T00:43:47;100625.08;;;19.04;98.82
41706;BME280;27385;51.096;17.190;2022-08-25T00:46:22;100623.84;;;19.05;98.83
41706;BME280;27385;51.096;17.190;2022-08-25T00:49:00;100626.32;;;19.05;99.03
41706;BME280;27385;51.096;17.190;2022-08-25T00:51:36;100628.54;;;19.05;99.11
41706;BME280;27385;51.096;17.190;2022-08-25T00:54:12;100632.13;;;19.06;99.23
41706;BME280;27385;51.096;17.190;2022-08-25T00:56:48;100633.48;;;19.07;99.41
41706;BME280;27385;51.096;17.190;2022-08-25T00:59:22;100631.32;;;19.08;99.70
41706;BME280;27385;51.096;17.190;2022-08-25T01:01:56;100628.36;;;19.07;99.79
41706;BME280;27385;51.096;17.190;2022-08-25T01:04:28;100628.05;;;19.05;99.70
41706;BME280;27385;51.096;17.190;2022-08-25T01:07:01;100623.48;;;19.04;99.71
41706;BME280;27385;51.096;17.190;2022-08-25T01:09:33;100624.48;;;19.03;99.55
41706;BME280;27385;51.096;17.190;2022-08-25T01:12:05;100621.94;;;19.00;99.48
41706;BME280;27385;51.096;17.190;2022-08-25T01:14:37;100626.73;;;18.99;99.64
41706;BME280;27385;51.096;17.190;2022-08-25T01:17:09;100626.74;;;18.98;99.46
41706;BME280;27385;51.096;17.190;2022-08-25T01:19:43;100626.80;;;18.96;99.67
41706;BME280;27385;51.096;17.190;2022-08-25T01:22:14;100621.98;;;18.94;99.98
41706;BME280;27385;51.096;17.190;2022-08-25T01:24:51;100621.19;;;18.92;99.73
41706;BME280;27385;51.096;17.190;2022-08-25T01:27:26;100618.08;;;18.89;99.76
41706;BME280;27385;51.096;17.190;2022-08-25T01:29:57;100616.36;;;18.86;99.65
41706;BME280;27385;51.096;17.190;2022-08-25T01:32:31;100613.48;;;18.80;99.81
41706;BME280;27385;51.096;17.190;2022-08-25T01:35:04;100615.45;;;18.77;99.72
41706;BME280;27385;51.096;17.190;2022-08-25T01:37:36;100616.20;;;18.74;100.00
41706;BME280;27385;51.096;17.190;2022-08-25T01:40:10;100612.73;;;18.69;100.00
41706;BME280;27385;51.096;17.190;2022-08-25T01:43:01;100610.90;;;18.67;100.00
41706;BME280;27385;51.096;17.190;2022-08-25T01:45:33;100611.91;;;18.64;99.94
41706;BME280;27385;51.096;17.190;2022-08-25T01:48:05;100613.73;;;18.60;99.92
41706;BME280;27385;51.096;17.190;2022-08-25T01:50:38;100615.56;;;18.56;99.88
41706;BME280;27385;51.096;17.190;2022-08-25T01:53:16;100610.85;;;18.54;99.89
41706;BME280;27385;51.096;17.190;2022-08-25T01:55:48;100614.45;;;18.53;99.95
41706;BME280;27385;51.096;17.190;2022-08-25T01:58:27;100610.92;;;18.50;100.00
41706;BME280;27385;51.096;17.190;2022-08-25T02:01:00;100613.58;;;18.47;100.00
41706;BME280;27385;51.096;17.190;2022-08-25T02:03:32;100617.66;;;18.45;100.00
41706;BME280;27385;51.096;17.190;2022-08-25T02:06:04;100616.48;;;18.44;100.00
41706;BME280;27385;51.096;17.190;2022-08-25T02:08:35;100613.30;;;18.41;100.00
41706;BME280;27385;51.096;17.190;2022-08-25T02:11:08;100615.04;;;18.39;100.00
41706;BME280;27385;51.096;17.190;2022-08-25T02:13:42;100612.75;;;18.35;100.00
41706;BME280;27385;51.096;17.190;2022-08-25T02:16:19;100610.68;;;18.30;99.99
41706;BME280;27385;51.096;17.190;2022-08-25T02:18:53;100610.20;;;18.26;100.00
41706;BME280;27385;51.096;17.190;2022-08-25T02:21:25;100605.95;;;18.23;100.00
41706;BME280;27385;51.096;17.190;2022-08-25T02:23:57;100606.21;;;18.22;100.00
41706;BME280;27385;51.096;17.190;2022-08-25T02:26:29;100604.02;;;18.21;100.00
41706;BME280;27385;51.096;17.190;2022-08-25T02:29:01;100598.53;;;18.19;100.00
41706;BME280;27385;51.096;17.190;2022-08-25T02:31:33;100594.94;;;18.17;100.00
41706;BME280;27385;51.096;17.190;2022-08-25T02:34:09;100593.56;;;18.16;100.00
41706;BME280;27385;51.096;17.190;2022-08-25T02:36:42;100594.30;;;18.14;100.00
41706;BME280;27385;51.096;17.190;2022-08-25T02:39:15;100591.27;;;18.13;100.00
41706;BME280;27385;51.096;17.190;2022-08-25T02:41:47;100596.46;;;18.14;100.00
41706;BME280;27385;51.096;17.190;2022-08-25T02:44:20;100600.05;;;18.13;100.00
41706;BME280;27385;51.096;17.190;2022-08-25T02:46:52;100596.40;;;18.13;100.00
41706;BME280;27385;51.096;17.190;2022-08-25T02:49:23;100595.35;;;18.11;100.00
41706;BME280;27385;51.096;17.190;2022-08-25T02:51:56;100598.11;;;18.12;100.00
41706;BME280;27385;51.096;17.190;2022-08-25T02:54:29;100600.31;;;18.13;100.00
41706;BME280;27385;51.096;17.190;2022-08-25T02:57:01;100596.51;;;18.13;100.00
41706;BME280;27385;51.096;17.190;2022-08-25T02:59:33;100597.42;;;18.14;100.00
41706;BME280;27385;51.096;17.190;2022-08-25T03:02:06;100590.84;;;18.16;100.00
41706;BME280;27385;51.096;17.190;2022-08-25T03:04:38;100596.59;;;18.17;100.00
41706;BME280;27385;51.096;17.190;2022-08-25T03:07:10;100592.89;;;18.18;100.00
41706;BME280;27385;51.096;17.190;2022-08-25T03:09:42;100593.45;;;18.16;100.00
41706;BME280;27385;51.096;17.190;2022-08-25T03:12:14;100596.13;;;18.17;100.00
41706;BME280;27385;51.096;17.190;2022-08-25T03:14:46;100595.84;;;18.21;100.00
41706;BME280;27385;51.096;17.190;2022-08-25T03:17:17;100591.68;;;18.23;100.00
41706;BME280;27385;51.096;17.190;2022-08-25T03:19:48;100589.31;;;18.23;100.00
41706;BME280;27385;51.096;17.190;2022-08-25T03:22:20;100585.91;;;18.23;100.00
41706;BME280;27385;51.096;17.190;2022-08-25T03:24:51;100588.96;;;18.22;100.00
41706;BME280;27385;51.096;17.190;2022-08-25T03:27:45;100585.59;;;18.24;100.00
41706;BME280;27385;51.096;17.190;2022-08-25T03:30:18;100581.55;;;18.24;100.00
41706;BME280;27385;51.096;17.190;2022-08-25T03:32:50;100580.96;;;18.25;100.00
41706;BME280;27385;51.096;17.190;2022-08-25T03:35:22;100583.27;;;18.25;100.00
41706;BME280;27385;51.096;17.190;2022-08-25T03:37:57;100579.77;;;18.26;100.00
41706;BME280;27385;51.096;17.190;2022-08-25T03:40:29;100582.98;;;18.24;100.00
41706;BME280;27385;51.096;17.190;2022-08-25T03:43:01;100583.89;;;18.18;100.00
41706;BME280;27385;51.096;17.190;2022-08-25T03:45:33;100582.52;;;18.16;100.00
41706;BME280;27385;51.096;17.190;2022-08-25T03:48:06;100586.27;;;18.16;100.00
41706;BME280;27385;51.096;17.190;2022-08-25T03:50:41;100589.85;;;18.17;100.00
41706;BME280;27385;51.096;17.190;2022-08-25T03:53:13;100592.27;;;18.17;100.00
41706;BME280;27385;51.096;17.190;2022-08-25T03:55:45;100591.80;;;18.17;100.00
41706;BME280;27385;51.096;17.190;2022-08-25T03:58:16;100595.88;;;18.16;100.00
41706;BME280;27385;51.096;17.190;2022-08-25T04:00:48;100595.36;;;18.17;100.00
41706;BME280;27385;51.096;17.190;2022-08-25T04:03:19;100596.53;;;18.17;100.00
41706;BME280;27385;51.096;17.190;2022-08-25T04:05:51;100591.91;;;18.18;100.00
41706;BME280;27385;51.096;17.190;2022-08-25T04:08:23;100595.39;;;18.18;100.00
41706;BME280;27385;51.096;17.190;2022-08-25T04:10:57;100600.89;;;18.18;100.00
41706;BME280;27385;51.096;17.190;2022-08-25T04:13:28;100601.24;;;18.20;100.00
41706;BME280;27385;51.096;17.190;2022-08-25T04:16:01;100600.05;;;18.21;100.00
41706;BME280;27385;51.096;17.190;2022-08-25T04:18:33;100602.36;;;18.21;100.00
41706;BME280;27385;51.096;17.190;2022-08-25T04:21:05;100600.05;;;18.22;100.00
41706;BME280;27385;51.096;17.190;2022-08-25T04:23:38;100597.54;;;18.23;100.00
41706;BME280;27385;51.096;17.190;2022-08-25T04:26:13;100600.52;;;18.24;100.00
41706;BME280;27385;51.096;17.190;2022-08-25T04:28:46;100601.57;;;18.26;100.00
41706;BME280;27385;51.096;17.190;2022-08-25T04:31:21;100601.20;;;18.28;100.00
41706;BME280;27385;51.096;17.190;2022-08-25T04:33:53;100604.02;;;18.29;100.00
41706;BME280;27385;51.096;17.190;2022-08-25T04:36:24;100598.27;;;18.28;100.00
41706;BME280;27385;51.096;17.190;2022-08-25T04:38:56;100596.63;;;18.27;100.00
41706;BME280;27385;51.096;17.190;2022-08-25T04:41:27;100599.19;;;18.27;100.00
41706;BME280;27385;51.096;17.190;2022-08-25T04:44:01;100602.63;;;18.28;100.00
41706;BME280;27385;51.096;17.190;2022-08-25T04:46:33;100601.39;;;18.28;100.00
41706;BME280;27385;51.096;17.190;2022-08-25T04:49:05;100601.60;;;18.30;100.00
41706;BME280;27385;51.096;17.190;2022-08-25T04:51:38;100601.13;;;18.32;100.00
41706;BME280;27385;51.096;17.190;2022-08-25T04:54:13;100599.91;;;18.35;100.00
41706;BME280;27385;51.096;17.190;2022-08-25T04:56:48;100593.22;;;18.35;100.00
41706;BME280;27385;51.096;17.190;2022-08-25T04:59:20;100593.07;;;18.36;100.00
41706;BME280;27385;51.096;17.190;2022-08-25T05:01:51;100589.55;;;18.38;100.00
41706;BME280;27385;51.096;17.190;2022-08-25T05:04:22;100587.08;;;18.39;100.00
41706;BME280;27385;51.096;17.190;2022-08-25T05:06:57;100589.13;;;18.41;100.00
41706;BME280;27385;51.096;17.190;2022-08-25T05:09:30;100585.54;;;18.44;100.00
41706;BME280;27385;51.096;17.190;2022-08-25T05:12:03;100585.27;;;18.46;100.00
41706;BME280;27385;51.096;17.190;2022-08-25T05:14:35;100586.48;;;18.49;100.00
41706;BME280;27385;51.096;17.190;2022-08-25T05:17:06;100588.38;;;18.49;100.00
41706;BME280;27385;51.096;17.190;2022-08-25T05:19:37;100584.38;;;18.47;100.00
41706;BME280;27385;51.096;17.190;2022-08-25T05:22:08;100584.61;;;18.44;100.00
41706;BME280;27385;51.096;17.190;2022-08-25T05:24:40;100585.52;;;18.42;100.00
41706;BME280;27385;51.096;17.190;2022-08-25T05:27:11;100588.73;;;18.40;100.00
41706;BME280;27385;51.096;17.190;2022-08-25T05:29:42;100580.30;;;18.38;100.00
41706;BME280;27385;51.096;17.190;2022-08-25T05:32:14;100577.84;;;18.38;100.00
41706;BME280;27385;51.096;17.190;2022-08-25T05:34:46;100579.34;;;18.36;100.00
41706;BME280;27385;51.096;17.190;2022-08-25T05:37:20;100576.66;;;18.37;100.00
41706;BME280;27385;51.096;17.190;2022-08-25T05:39:51;100579.16;;;18.39;100.00
41706;BME280;27385;51.096;17.190;2022-08-25T05:42:23;100578.65;;;18.42;100.00
41706;BME280;27385;51.096;17.190;2022-08-25T05:44:54;100574.15;;;18.47;100.00
41706;BME280;27385;51.096;17.190;2022-08-25T05:47:26;100571.99;;;18.54;100.00
41706;BME280;27385;51.096;17.190;2022-08-25T05:49:59;100569.54;;;18.58;100.00
41706;BME280;27385;51.096;17.190;2022-08-25T05:52:31;100571.94;;;18.61;100.00
41706;BME280;27385;51.096;17.190;2022-08-25T05:55:03;100572.44;;;18.62;100.00
41706;BME280;27385;51.096;17.190;2022-08-25T05:57:35;100575.13;;;18.66;100.00
41706;BME280;27385;51.096;17.190;2022-08-25T06:00:09;100576.72;;;18.72;100.00
41706;BME280;27385;51.096;17.190;2022-08-25T06:02:41;100585.48;;;18.78;100.00
41706;BME280;27385;51.096;17.190;2022-08-25T06:05:16;100584.83;;;18.86;100.00
41706;BME280;27385;51.096;17.190;2022-08-25T06:07:50;100589.11;;;18.95;100.00
41706;BME280;27385;51.096;17.190;2022-08-25T06:10:22;100587.40;;;19.01;100.00
41706;BME280;27385;51.096;17.190;2022-08-25T06:12:54;100588.08;;;19.06;100.00
41706;BME280;27385;51.096;17.190;2022-08-25T06:15:26;100589.80;;;19.10;100.00
41706;BME280;27385;51.096;17.190;2022-08-25T06:17:58;100590.17;;;19.13;100.00
41706;BME280;27385;51.096;17.190;2022-08-25T06:20:31;100593.49;;;19.15;100.00
41706;BME280;27385;51.096;17.190;2022-08-25T06:23:03;100597.18;;;19.17;100.00
41706;BME280;27385;51.096;17.190;2022-08-25T06:25:35;100602.48;;;19.17;100.00
41706;BME280;27385;51.096;17.190;2022-08-25T06:28:07;100607.95;;;19.21;100.00
41706;BME280;27385;51.096;17.190;2022-08-25T06:30:39;100610.25;;;19.26;100.00
41706;BME280;27385;51.096;17.190;2022-08-25T06:33:11;100610.92;;;19.30;100.00
41706;BME280;27385;51.096;17.190;2022-08-25T06:35:44;100607.00;;;19.35;100.00
41706;BME280;27385;51.096;17.190;2022-08-25T06:38:16;100611.07;;;19.39;100.00
41706;BME280;27385;51.096;17.190;2022-08-25T06:40:49;100609.69;;;19.43;100.00
41706;BME280;27385;51.096;17.190;2022-08-25T06:43:21;100608.31;;;19.46;100.00
41706;BME280;27385;51.096;17.190;2022-08-25T06:45:53;100604.71;;;19.51;100.00
41706;BME280;27385;51.096;17.190;2022-08-25T06:48:24;100608.05;;;19.55;100.00
41706;BME280;27385;51.096;17.190;2022-08-25T06:50:56;100607.88;;;19.61;100.00
41706;BME280;27385;51.096;17.190;2022-08-25T06:53:28;100612.23;;;19.67;100.00
41706;BME280;27385;51.096;17.190;2022-08-25T06:55:59;100612.27;;;19.72;100.00
41706;BME280;27385;51.096;17.190;2022-08-25T06:58:32;100612.98;;;19.78;100.00
41706;BME280;27385;51.096;17.190;2022-08-25T07:01:09;100613.23;;;19.82;100.00
41706;BME280;27385;51.096;17.190;2022-08-25T07:03:41;100615.70;;;19.82;100.00
41706;BME280;27385;51.096;17.190;2022-08-25T07:06:13;100621.56;;;19.88;100.00
41706;BME280;27385;51.096;17.190;2022-08-25T07:08:45;100623.39;;;19.97;100.00
41706;BME280;27385;51.096;17.190;2022-08-25T07:11:17;100622.27;;;20.05;100.00
41706;BME280;27385;51.096;17.190;2022-08-25T07:13:50;100624.29;;;20.11;100.00
41706;BME280;27385;51.096;17.190;2022-08-25T07:16:22;100628.35;;;20.21;100.00
41706;BME280;27385;51.096;17.190;2022-08-25T07:18:53;100631.94;;;20.26;100.00
41706;BME280;27385;51.096;17.190;2022-08-25T07:21:27;100636.05;;;20.34;100.00
41706;BME280;27385;51.096;17.190;2022-08-25T07:23:59;100633.04;;;20.42;100.00
41706;BME280;27385;51.096;17.190;2022-08-25T07:26:33;100632.52;;;20.49;100.00
41706;BME280;27385;51.096;17.190;2022-08-25T07:29:08;100631.00;;;20.54;100.00
41706;BME280;27385;51.096;17.190;2022-08-25T07:31:40;100625.36;;;20.59;100.00
41706;BME280;27385;51.096;17.190;2022-08-25T07:34:12;100624.84;;;20.62;100.00
41706;BME280;27385;51.096;17.190;2022-08-25T07:37:01;100632.86;;;20.67;100.00
41706;BME280;27385;51.096;17.190;2022-08-25T07:39:34;100630.26;;;20.72;100.00
41706;BME280;27385;51.096;17.190;2022-08-25T07:42:07;100625.17;;;20.74;100.00
41706;BME280;27385;51.096;17.190;2022-08-25T07:44:39;100628.21;;;20.74;100.00
41706;BME280;27385;51.096;17.190;2022-08-25T07:47:11;100631.29;;;20.78;100.00
41706;BME280;27385;51.096;17.190;2022-08-25T07:49:44;100626.70;;;20.82;100.00
41706;BME280;27385;51.096;17.190;2022-08-25T07:52:17;100629.55;;;20.89;100.00
41706;BME280;27385;51.096;17.190;2022-08-25T07:54:48;100627.20;;;20.98;100.00
41706;BME280;27385;51.096;17.190;2022-08-25T07:57:22;100624.35;;;21.03;100.00
41706;BME280;27385;51.096;17.190;2022-08-25T07:59:55;100620.09;;;21.08;100.00
41706;BME280;27385;51.096;17.190;2022-08-25T08:02:27;100624.00;;;21.14;100.00
41706;BME280;27385;51.096;17.190;2022-08-25T08:04:59;100627.92;;;21.20;100.00
41706;BME280;27385;51.096;17.190;2022-08-25T08:07:32;100625.23;;;21.27;100.00
41706;BME280;27385;51.096;17.190;2022-08-25T08:10:08;100620.38;;;21.33;100.00
41706;BME280;27385;51.096;17.190;2022-08-25T08:12:41;100621.55;;;21.43;100.00
41706;BME280;27385;51.096;17.190;2022-08-25T08:15:13;100619.40;;;21.53;100.00
41706;BME280;27385;51.096;17.190;2022-08-25T08:17:45;100616.11;;;21.62;100.00
41706;BME280;27385;51.096;17.190;2022-08-25T08:20:17;100621.61;;;21.65;100.00
41706;BME280;27385;51.096;17.190;2022-08-25T08:22:49;100622.78;;;21.71;100.00
41706;BME280;27385;51.096;17.190;2022-08-25T08:25:21;100628.11;;;21.76;100.00
41706;BME280;27385;51.096;17.190;2022-08-25T08:27:53;100620.13;;;21.80;100.00
41706;BME280;27385;51.096;17.190;2022-08-25T08:30:26;100623.45;;;21.84;100.00
41706;BME280;27385;51.096;17.190;2022-08-25T08:32:57;100625.45;;;21.87;100.00
41706;BME280;27385;51.096;17.190;2022-08-25T08:35:29;100626.85;;;21.89;99.99
41706;BME280;27385;51.096;17.190;2022-08-25T08:38:01;100622.30;;;21.93;99.93
41706;BME280;27385;51.096;17.190;2022-08-25T08:40:39;100623.48;;;21.96;100.00
41706;BME280;27385;51.096;17.190;2022-08-25T08:43:35;100624.43;;;22.03;100.00
41706;BME280;27385;51.096;17.190;2022-08-25T08:46:07;100623.22;;;22.06;99.91
41706;BME280;27385;51.096;17.190;2022-08-25T08:48:53;100623.02;;;22.08;99.36
41706;BME280;27385;51.096;17.190;2022-08-25T08:51:31;100619.23;;;22.08;98.23
41706;BME280;27385;51.096;17.190;2022-08-25T08:54:09;100613.66;;;22.08;98.41
41706;BME280;27385;51.096;17.190;2022-08-25T08:56:47;100606.34;;;22.11;98.25
41706;BME280;27385;51.096;17.190;2022-08-25T08:59:23;100603.06;;;22.15;97.83
41706;BME280;27385;51.096;17.190;2022-08-25T09:01:58;100601.49;;;22.18;97.90
41706;BME280;27385;51.096;17.190;2022-08-25T09:04:36;100597.23;;;22.23;97.46
41706;BME280;27385;51.096;17.190;2022-08-25T09:07:13;100595.20;;;22.31;97.49
41706;BME280;27385;51.096;17.190;2022-08-25T09:09:48;100594.08;;;22.40;97.18
41706;BME280;27385;51.096;17.190;2022-08-25T09:12:28;100597.08;;;22.51;96.61
41706;BME280;27385;51.096;17.190;2022-08-25T09:15:12;100601.20;;;22.62;96.18
41706;BME280;27385;51.096;17.190;2022-08-25T09:18:04;100600.86;;;22.73;94.58
41706;BME280;27385;51.096;17.190;2022-08-25T09:21:01;100600.10;;;22.85;95.78
41706;BME280;27385;51.096;17.190;2022-08-25T09:23:42;100602.73;;;22.95;93.34
41706;BME280;27385;51.096;17.190;2022-08-25T09:26:27;100593.75;;;23.01;94.36
41706;BME280;27385;51.096;17.190;2022-08-25T09:29:03;100593.83;;;23.07;93.82
41706;BME280;27385;51.096;17.190;2022-08-25T09:31:41;100586.19;;;23.14;93.45
41706;BME280;27385;51.096;17.190;2022-08-25T09:34:15;100587.13;;;23.23;92.62
41706;BME280;27385;51.096;17.190;2022-08-25T09:36:48;100582.95;;;23.30;92.67
41706;BME280;27385;51.096;17.190;2022-08-25T09:39:22;100577.57;;;23.35;92.56
41706;BME280;27385;51.096;17.190;2022-08-25T09:41:55;100577.55;;;23.40;91.57
41706;BME280;27385;51.096;17.190;2022-08-25T09:44:29;100576.31;;;23.45;92.17
41706;BME280;27385;51.096;17.190;2022-08-25T09:47:05;100575.84;;;23.54;92.50
41706;BME280;27385;51.096;17.190;2022-08-25T09:49:39;100576.53;;;23.64;91.71
41706;BME280;27385;51.096;17.190;2022-08-25T09:52:34;100575.27;;;23.71;90.93
41706;BME280;27385;51.096;17.190;2022-08-25T09:55:28;100572.46;;;23.79;90.54
41706;BME280;27385;51.096;17.190;2022-08-25T09:58:01;100568.95;;;23.87;90.74
41706;BME280;27385;51.096;17.190;2022-08-25T10:00:43;100567.84;;;23.93;89.99
41706;BME280;27385;51.096;17.190;2022-08-25T10:03:21;100564.44;;;23.97;89.77
41706;BME280;27385;51.096;17.190;2022-08-25T10:06:03;100558.63;;;24.05;89.78
41706;BME280;27385;51.096;17.190;2022-08-25T10:08:39;100557.97;;;24.14;89.24
41706;BME280;27385;51.096;17.190;2022-08-25T10:11:12;100550.57;;;24.23;88.58
41706;BME280;27385;51.096;17.190;2022-08-25T10:13:46;100544.48;;;24.31;88.05
41706;BME280;27385;51.096;17.190;2022-08-25T10:16:26;100545.48;;;24.35;87.96
41706;BME280;27385;51.096;17.190;2022-08-25T10:19:06;100544.60;;;24.43;87.69
41706;BME280;27385;51.096;17.190;2022-08-25T10:21:44;100540.08;;;24.52;86.91
41706;BME280;27385;51.096;17.190;2022-08-25T10:24:16;100538.18;;;24.59;87.24
41706;BME280;27385;51.096;17.190;2022-08-25T10:26:57;100533.77;;;24.65;86.42
41706;BME280;27385;51.096;17.190;2022-08-25T10:29:44;100532.90;;;24.68;86.39
41706;BME280;27385;51.096;17.190;2022-08-25T10:32:30;100535.34;;;24.72;86.50
41706;BME280;27385;51.096;17.190;2022-08-25T10:35:11;100527.34;;;24.75;86.06
41706;BME280;27385;51.096;17.190;2022-08-25T10:37:49;100529.80;;;24.80;85.22
41706;BME280;27385;51.096;17.190;2022-08-25T10:40:30;100524.65;;;24.82;84.64
41706;BME280;27385;51.096;17.190;2022-08-25T10:43:09;100521.27;;;24.86;84.76
41706;BME280;27385;51.096;17.190;2022-08-25T10:45:46;100521.73;;;24.92;84.83
41706;BME280;27385;51.096;17.190;2022-08-25T10:48:28;100515.98;;;24.95;84.68
41706;BME280;27385;51.096;17.190;2022-08-25T10:51:09;100507.05;;;25.00;84.69
41706;BME280;27385;51.096;17.190;2022-08-25T10:53:53;100507.55;;;25.04;84.16
41706;BME280;27385;51.096;17.190;2022-08-25T10:56:30;100499.79;;;25.09;84.27
41706;BME280;27385;51.096;17.190;2022-08-25T10:59:29;100497.64;;;25.19;83.70
41706;BME280;27385;51.096;17.190;2022-08-25T11:02:36;100488.63;;;25.27;83.48
41706;BME280;27385;51.096;17.190;2022-08-25T11:05:19;100486.04;;;25.35;83.59
41706;BME280;27385;51.096;17.190;2022-08-25T11:07:56;100481.63;;;25.41;83.10
41706;BME280;27385;51.096;17.190;2022-08-25T11:10:39;100474.83;;;25.48;82.46
41706;BME280;27385;51.096;17.190;2022-08-25T11:13:19;100471.77;;;25.55;82.83
41706;BME280;27385;51.096;17.190;2022-08-25T11:15:57;100464.48;;;25.64;82.48
41706;BME280;27385;51.096;17.190;2022-08-25T11:18:32;100457.30;;;25.68;82.43
41706;BME280;27385;51.096;17.190;2022-08-25T11:21:08;100455.23;;;25.72;81.31
41706;BME280;27385;51.096;17.190;2022-08-25T11:23:45;100452.46;;;25.76;80.57
41706;BME280;27385;51.096;17.190;2022-08-25T11:26:27;100449.84;;;25.82;80.73
41706;BME280;27385;51.096;17.190;2022-08-25T11:29:08;100446.94;;;25.87;81.04
41706;BME280;27385;51.096;17.190;2022-08-25T11:31:46;100444.77;;;25.94;80.69
41706;BME280;27385;51.096;17.190;2022-08-25T11:34:20;100449.30;;;26.00;80.71
41706;BME280;27385;51.096;17.190;2022-08-25T11:36:58;100444.42;;;26.06;79.24
41706;BME280;27385;51.096;17.190;2022-08-25T11:39:54;100448.48;;;26.12;78.86
41706;BME280;27385;51.096;17.190;2022-08-25T11:42:36;100446.66;;;26.16;78.02
41706;BME280;27385;51.096;17.190;2022-08-25T11:45:30;100444.59;;;26.18;77.86
41706;BME280;27385;51.096;17.190;2022-08-25T11:48:15;100436.27;;;26.18;77.05
41706;BME280;27385;51.096;17.190;2022-08-25T11:51:02;100433.95;;;26.22;77.29
41706;BME280;27385;51.096;17.190;2022-08-25T11:53:39;100432.39;;;26.29;76.53
41706;BME280;27385;51.096;17.190;2022-08-25T11:59:00;100434.35;;;26.37;74.55
41706;BME280;27385;51.096;17.190;2022-08-25T12:04:42;100431.67;;;26.42;75.45
41706;BME280;27385;51.096;17.190;2022-08-25T12:07:56;100432.73;;;26.44;75.36
41706;BME280;27385;51.096;17.190;2022-08-25T12:11:02;100432.41;;;26.50;74.78
41706;BME280;27385;51.096;17.190;2022-08-25T12:13:45;100430.34;;;26.52;74.23
41706;BME280;27385;51.096;17.190;2022-08-25T12:16:41;100429.54;;;26.55;73.73
41706;BME280;27385;51.096;17.190;2022-08-25T12:19:52;100427.61;;;26.57;73.38
41706;BME280;27385;51.096;17.190;2022-08-25T12:22:52;100422.86;;;26.59;73.08
41706;BME280;27385;51.096;17.190;2022-08-25T12:25:49;100423.70;;;26.60;72.93
41706;BME280;27385;51.096;17.190;2022-08-25T12:31:29;100426.21;;;26.74;73.73
41706;BME280;27385;51.096;17.190;2022-08-25T12:34:21;100426.44;;;26.78;73.28
41706;BME280;27385;51.096;17.190;2022-08-25T12:37:00;100428.25;;;26.77;71.17
41706;BME280;27385;51.096;17.190;2022-08-25T12:39:36;100427.67;;;26.74;71.97
41706;BME280;27385;51.096;17.190;2022-08-25T12:42:27;100427.10;;;26.73;72.13
41706;BME280;27385;51.096;17.190;2022-08-25T12:45:13;100423.86;;;26.73;72.44
41706;BME280;27385;51.096;17.190;2022-08-25T12:47:46;100420.69;;;26.76;71.92
41706;BME280;27385;51.096;17.190;2022-08-25T12:50:37;100419.70;;;26.83;71.80
41706;BME280;27385;51.096;17.190;2022-08-25T12:53:17;100412.68;;;26.90;71.63
41706;BME280;27385;51.096;17.190;2022-08-25T12:55:59;100408.87;;;26.92;70.82
41706;BME280;27385;51.096;17.190;2022-08-25T12:58:49;100406.00;;;26.96;71.32
41706;BME280;27385;51.096;17.190;2022-08-25T13:01:30;100403.02;;;27.00;70.88
41706;BME280;27385;51.096;17.190;2022-08-25T13:07:16;100399.54;;;27.09;70.53
41706;BME280;27385;51.096;17.190;2022-08-25T13:10:21;100399.04;;;27.10;70.66
41706;BME280;27385;51.096;17.190;2022-08-25T13:13:02;100396.60;;;27.12;70.64
41706;BME280;27385;51.096;17.190;2022-08-25T13:15:35;100399.89;;;27.15;70.72
41706;BME280;27385;51.096;17.190;2022-08-25T13:18:26;100390.48;;;27.14;69.89
41706;BME280;27385;51.096;17.190;2022-08-25T13:21:07;100390.22;;;27.18;70.05
41706;BME280;27385;51.096;17.190;2022-08-25T13:23:44;100386.02;;;27.19;69.84
41706;BME280;27385;51.096;17.190;2022-08-25T13:26:21;100384.06;;;27.21;70.31
41706;BME280;27385;51.096;17.190;2022-08-25T13:28:56;100384.41;;;27.24;69.93
41706;BME280;27385;51.096;17.190;2022-08-25T13:31:29;100384.44;;;27.28;70.17